sensor_id;sensor_type;location;lat;lon;timestamp;P1;durP1;ratioP1;P2;durP2;ratioP2
33830;SDS011;20137;48.834;8.732;2022-11-15T00:00:44;7.38;;;3.58;;
33830;SDS011;20137;48.834;8.732;2022-11-15T00:03:12;10.57;;;4.35;;
33830;SDS011;20137;48.834;8.732;2022-11-15T00:05:38;6.50;;;4.00;;
33830;SDS011;20137;48.834;8.732;2022-11-15T00:08:04;7.43;;;3.83;;
33830;SDS011;20137;48.834;8.732;2022-11-15T00:10:30;5.55;;;3.50;;
33830;SDS011;20137;48.834;8.732;2022-11-15T00:12:56;8.07;;;3.92;;
33830;SDS011;20137;48.834;8.732;2022-11-15T00:15:22;8.27;;;3.95;;
33830;SDS011;20137;48.834;8.732;2022-11-15T00:17:49;6.35;;;3.20;;
33830;SDS011;20137;48.834;8.732;2022-11-15T00:20:16;6.88;;;3.67;;
33830;SDS011;20137;48.834;8.732;2022-11-15T00:22:42;8.80;;;4.65;;
33830;SDS011;20137;48.834;8.732;2022-11-15T00:25:08;6.95;;;3.95;;
33830;SDS011;20137;48.834;8.732;2022-11-15T00:27:34;9.18;;;3.78;;
33830;SDS011;20137;48.834;8.732;2022-11-15T00:30:00;8.30;;;4.05;;
33830;SDS011;20137;48.834;8.732;2022-11-15T00:32:26;8.75;;;3.80;;
33830;SDS011;20137;48.834;8.732;2022-11-15T00:34:52;7.88;;;3.75;;
33830;SDS011;20137;48.834;8.732;2022-11-15T00:37:18;7.38;;;4.22;;
33830;SDS011;20137;48.834;8.732;2022-11-15T00:39:44;8.20;;;4.15;;
33830;SDS011;20137;48.834;8.732;2022-11-15T00:42:10;11.05;;;4.22;;
33830;SDS011;20137;48.834;8.732;2022-11-15T00:44:36;7.43;;;4.28;;
33830;SDS011;20137;48.834;8.732;2022-11-15T00:47:02;10.43;;;5.25;;
33830;SDS011;20137;48.834;8.732;2022-11-15T00:49:28;8.07;;;4.43;;
33830;SDS011;20137;48.834;8.732;2022-11-15T00:51:54;8.30;;;4.40;;
33830;SDS011;20137;48.834;8.732;2022-11-15T00:54:20;6.30;;;3.78;;
33830;SDS011;20137;48.834;8.732;2022-11-15T00:56:46;9.07;;;4.15;;
33830;SDS011;20137;48.834;8.732;2022-11-15T00:59:12;6.22;;;3.92;;
33830;SDS011;20137;48.834;8.732;2022-11-15T01:01:38;6.15;;;3.75;;
33830;SDS011;20137;48.834;8.732;2022-11-15T01:04:04;8.88;;;3.90;;
33830;SDS011;20137;48.834;8.732;2022-11-15T01:06:30;8.15;;;4.72;;
33830;SDS011;20137;48.834;8.732;2022-11-15T01:08:56;11.00;;;4.43;;
33830;SDS011;20137;48.834;8.732;2022-11-15T01:11:22;6.20;;;4.00;;
33830;SDS011;20137;48.834;8.732;2022-11-15T01:13:48;9.98;;;3.97;;
33830;SDS011;20137;48.834;8.732;2022-11-15T01:16:15;7.88;;;4.22;;
33830;SDS011;20137;48.834;8.732;2022-11-15T01:18:42;11.32;;;3.97;;
33830;SDS011;20137;48.834;8.732;2022-11-15T01:21:10;7.05;;;3.67;;
33830;SDS011;20137;48.834;8.732;2022-11-15T01:23:36;7.22;;;3.83;;
33830;SDS011;20137;48.834;8.732;2022-11-15T01:26:03;6.63;;;4.03;;
33830;SDS011;20137;48.834;8.732;2022-11-15T01:28:33;7.18;;;3.95;;
33830;SDS011;20137;48.834;8.732;2022-11-15T01:30:59;9.30;;;3.90;;
33830;SDS011;20137;48.834;8.732;2022-11-15T01:33:26;6.53;;;4.10;;
33830;SDS011;20137;48.834;8.732;2022-11-15T01:35:52;6.35;;;3.75;;
33830;SDS011;20137;48.834;8.732;2022-11-15T01:38:17;11.07;;;4.20;;
33830;SDS011;20137;48.834;8.732;2022-11-15T01:40:43;12.77;;;3.83;;
33830;SDS011;20137;48.834;8.732;2022-11-15T01:43:26;6.05;;;3.53;;
33830;SDS011;20137;48.834;8.732;2022-11-15T01:45:53;9.57;;;3.72;;
33830;SDS011;20137;48.834;8.732;2022-11-15T01:48:21;11.15;;;3.78;;
33830;SDS011;20137;48.834;8.732;2022-11-15T01:50:47;7.90;;;4.00;;
33830;SDS011;20137;48.834;8.732;2022-11-15T01:53:14;5.53;;;3.55;;
33830;SDS011;20137;48.834;8.732;2022-11-15T01:55:41;5.03;;;3.70;;
33830;SDS011;20137;48.834;8.732;2022-11-15T01:58:07;8.80;;;3.72;;
33830;SDS011;20137;48.834;8.732;2022-11-15T02:00:33;6.47;;;4.10;;
33830;SDS011;20137;48.834;8.732;2022-11-15T02:02:59;7.13;;;3.63;;
33830;SDS011;20137;48.834;8.732;2022-11-15T02:05:25;6.35;;;3.38;;
33830;SDS011;20137;48.834;8.732;2022-11-15T02:07:51;7.82;;;3.75;;
33830;SDS011;20137;48.834;8.732;2022-11-15T02:10:18;5.63;;;3.63;;
33830;SDS011;20137;48.834;8.732;2022-11-15T02:12:45;5.28;;;3.50;;
33830;SDS011;20137;48.834;8.732;2022-11-15T02:15:11;5.78;;;3.40;;
33830;SDS011;20137;48.834;8.732;2022-11-15T02:35:58;8.00;;;3.90;;
33830;SDS011;20137;48.834;8.732;2022-11-15T02:40:58;7.18;;;3.90;;
33830;SDS011;20137;48.834;8.732;2022-11-15T02:43:27;11.85;;;4.60;;
33830;SDS011;20137;48.834;8.732;2022-11-15T02:46:22;5.38;;;3.58;;
33830;SDS011;20137;48.834;8.732;2022-11-15T02:49:10;6.67;;;3.27;;
33830;SDS011;20137;48.834;8.732;2022-11-15T02:51:36;4.68;;;3.45;;
33830;SDS011;20137;48.834;8.732;2022-11-15T02:54:02;7.22;;;3.47;;
33830;SDS011;20137;48.834;8.732;2022-11-15T02:56:28;5.00;;;3.42;;
33830;SDS011;20137;48.834;8.732;2022-11-15T03:01:47;7.25;;;3.30;;
33830;SDS011;20137;48.834;8.732;2022-11-15T03:04:33;5.63;;;3.25;;
33830;SDS011;20137;48.834;8.732;2022-11-15T03:07:07;5.93;;;3.60;;
33830;SDS011;20137;48.834;8.732;2022-11-15T03:09:55;8.38;;;3.80;;
33830;SDS011;20137;48.834;8.732;2022-11-15T03:12:27;5.60;;;3.58;;
33830;SDS011;20137;48.834;8.732;2022-11-15T03:17:52;6.95;;;3.45;;
33830;SDS011;20137;48.834;8.732;2022-11-15T03:20:20;6.30;;;3.80;;
33830;SDS011;20137;48.834;8.732;2022-11-15T03:22:47;4.85;;;2.95;;
33830;SDS011;20137;48.834;8.732;2022-11-15T03:25:16;8.00;;;4.25;;
33830;SDS011;20137;48.834;8.732;2022-11-15T03:27:44;7.55;;;3.38;;
33830;SDS011;20137;48.834;8.732;2022-11-15T03:30:12;9.13;;;3.30;;
33830;SDS011;20137;48.834;8.732;2022-11-15T03:32:40;9.45;;;3.08;;
33830;SDS011;20137;48.834;8.732;2022-11-15T03:35:09;6.97;;;3.13;;
33830;SDS011;20137;48.834;8.732;2022-11-15T03:38:23;6.57;;;3.03;;
33830;SDS011;20137;48.834;8.732;2022-11-15T03:40:25;5.82;;;2.95;;
33830;SDS011;20137;48.834;8.732;2022-11-15T03:42:56;7.47;;;3.30;;
33830;SDS011;20137;48.834;8.732;2022-11-15T03:45:28;5.15;;;3.10;;
33830;SDS011;20137;48.834;8.732;2022-11-15T03:50:23;4.82;;;2.53;;
33830;SDS011;20137;48.834;8.732;2022-11-15T03:52:50;6.88;;;3.38;;
33830;SDS011;20137;48.834;8.732;2022-11-15T03:55:17;8.60;;;4.43;;
33830;SDS011;20137;48.834;8.732;2022-11-15T03:57:43;11.48;;;4.72;;
33830;SDS011;20137;48.834;8.732;2022-11-15T04:00:10;7.53;;;3.85;;
33830;SDS011;20137;48.834;8.732;2022-11-15T04:02:36;7.13;;;3.70;;
33830;SDS011;20137;48.834;8.732;2022-11-15T04:05:03;6.60;;;3.30;;
33830;SDS011;20137;48.834;8.732;2022-11-15T04:07:29;5.88;;;3.60;;
33830;SDS011;20137;48.834;8.732;2022-11-15T04:09:55;5.75;;;3.15;;
33830;SDS011;20137;48.834;8.732;2022-11-15T04:12:27;6.97;;;3.03;;
33830;SDS011;20137;48.834;8.732;2022-11-15T04:14:57;6.03;;;3.55;;
33830;SDS011;20137;48.834;8.732;2022-11-15T04:17:32;9.48;;;3.22;;
33830;SDS011;20137;48.834;8.732;2022-11-15T04:19:58;5.10;;;3.40;;
33830;SDS011;20137;48.834;8.732;2022-11-15T04:22:43;4.93;;;2.70;;
33830;SDS011;20137;48.834;8.732;2022-11-15T04:25:28;6.38;;;3.45;;
33830;SDS011;20137;48.834;8.732;2022-11-15T04:27:54;5.72;;;2.95;;
33830;SDS011;20137;48.834;8.732;2022-11-15T04:30:20;7.00;;;3.00;;
33830;SDS011;20137;48.834;8.732;2022-11-15T04:32:46;6.88;;;3.00;;
33830;SDS011;20137;48.834;8.732;2022-11-15T04:35:12;6.38;;;3.20;;
33830;SDS011;20137;48.834;8.732;2022-11-15T04:37:38;6.20;;;3.30;;
33830;SDS011;20137;48.834;8.732;2022-11-15T04:40:04;6.90;;;3.25;;
33830;SDS011;20137;48.834;8.732;2022-11-15T04:42:30;9.38;;;3.03;;
33830;SDS011;20137;48.834;8.732;2022-11-15T04:44:56;8.25;;;3.17;;
33830;SDS011;20137;48.834;8.732;2022-11-15T04:47:22;6.22;;;2.70;;
33830;SDS011;20137;48.834;8.732;2022-11-15T04:49:48;5.15;;;3.13;;
33830;SDS011;20137;48.834;8.732;2022-11-15T04:52:14;6.40;;;2.83;;
33830;SDS011;20137;48.834;8.732;2022-11-15T04:54:40;6.63;;;3.30;;
33830;SDS011;20137;48.834;8.732;2022-11-15T04:57:07;7.28;;;3.50;;
33830;SDS011;20137;48.834;8.732;2022-11-15T04:59:33;4.75;;;2.63;;
33830;SDS011;20137;48.834;8.732;2022-11-15T05:01:59;4.47;;;2.80;;
33830;SDS011;20137;48.834;8.732;2022-11-15T05:04:25;4.50;;;2.70;;
33830;SDS011;20137;48.834;8.732;2022-11-15T05:06:51;4.70;;;2.72;;
33830;SDS011;20137;48.834;8.732;2022-11-15T05:09:18;5.07;;;3.20;;
33830;SDS011;20137;48.834;8.732;2022-11-15T05:11:44;5.15;;;3.15;;
33830;SDS011;20137;48.834;8.732;2022-11-15T05:14:11;6.07;;;2.78;;
33830;SDS011;20137;48.834;8.732;2022-11-15T05:16:37;5.20;;;2.75;;
33830;SDS011;20137;48.834;8.732;2022-11-15T05:19:03;4.85;;;2.50;;
33830;SDS011;20137;48.834;8.732;2022-11-15T05:21:30;5.45;;;3.13;;
33830;SDS011;20137;48.834;8.732;2022-11-15T05:23:56;7.47;;;3.03;;
33830;SDS011;20137;48.834;8.732;2022-11-15T05:26:22;4.57;;;2.63;;
33830;SDS011;20137;48.834;8.732;2022-11-15T05:28:52;6.05;;;2.63;;
33830;SDS011;20137;48.834;8.732;2022-11-15T05:31:19;5.85;;;3.40;;
33830;SDS011;20137;48.834;8.732;2022-11-15T05:33:45;5.93;;;3.35;;
33830;SDS011;20137;48.834;8.732;2022-11-15T05:38:37;5.70;;;3.35;;
33830;SDS011;20137;48.834;8.732;2022-11-15T05:41:03;5.90;;;3.30;;
33830;SDS011;20137;48.834;8.732;2022-11-15T05:43:29;5.50;;;3.30;;
33830;SDS011;20137;48.834;8.732;2022-11-15T05:45:56;6.05;;;3.75;;
33830;SDS011;20137;48.834;8.732;2022-11-15T05:48:22;5.55;;;3.35;;
33830;SDS011;20137;48.834;8.732;2022-11-15T05:50:48;5.20;;;3.47;;
33830;SDS011;20137;48.834;8.732;2022-11-15T05:53:15;5.55;;;3.40;;
33830;SDS011;20137;48.834;8.732;2022-11-15T05:55:41;8.25;;;4.38;;
33830;SDS011;20137;48.834;8.732;2022-11-15T05:58:07;7.22;;;3.00;;
33830;SDS011;20137;48.834;8.732;2022-11-15T06:00:33;7.55;;;2.70;;
33830;SDS011;20137;48.834;8.732;2022-11-15T06:02:59;9.07;;;2.90;;
33830;SDS011;20137;48.834;8.732;2022-11-15T06:05:25;6.35;;;3.30;;
33830;SDS011;20137;48.834;8.732;2022-11-15T06:07:51;5.70;;;3.20;;
33830;SDS011;20137;48.834;8.732;2022-11-15T06:10:17;3.95;;;2.85;;
33830;SDS011;20137;48.834;8.732;2022-11-15T06:12:43;5.20;;;3.15;;
33830;SDS011;20137;48.834;8.732;2022-11-15T06:15:09;5.45;;;2.95;;
33830;SDS011;20137;48.834;8.732;2022-11-15T06:17:35;5.70;;;3.20;;
33830;SDS011;20137;48.834;8.732;2022-11-15T06:20:01;9.23;;;3.15;;
33830;SDS011;20137;48.834;8.732;2022-11-15T06:22:28;7.70;;;3.20;;
33830;SDS011;20137;48.834;8.732;2022-11-15T06:24:54;5.95;;;3.05;;
33830;SDS011;20137;48.834;8.732;2022-11-15T06:27:20;4.50;;;3.42;;
33830;SDS011;20137;48.834;8.732;2022-11-15T06:29:46;4.95;;;3.13;;
33830;SDS011;20137;48.834;8.732;2022-11-15T06:32:12;8.65;;;3.95;;
33830;SDS011;20137;48.834;8.732;2022-11-15T06:34:38;5.90;;;3.30;;
33830;SDS011;20137;48.834;8.732;2022-11-15T06:37:04;5.85;;;3.38;;
33830;SDS011;20137;48.834;8.732;2022-11-15T06:39:30;4.97;;;3.28;;
33830;SDS011;20137;48.834;8.732;2022-11-15T06:41:56;6.25;;;2.95;;
33830;SDS011;20137;48.834;8.732;2022-11-15T06:44:22;6.53;;;3.10;;
33830;SDS011;20137;48.834;8.732;2022-11-15T06:46:48;6.57;;;3.50;;
33830;SDS011;20137;48.834;8.732;2022-11-15T06:49:14;7.72;;;2.80;;
33830;SDS011;20137;48.834;8.732;2022-11-15T06:51:40;10.68;;;3.28;;
33830;SDS011;20137;48.834;8.732;2022-11-15T06:54:06;8.38;;;3.10;;
33830;SDS011;20137;48.834;8.732;2022-11-15T06:56:33;6.03;;;3.20;;
33830;SDS011;20137;48.834;8.732;2022-11-15T06:58:59;4.93;;;3.30;;
33830;SDS011;20137;48.834;8.732;2022-11-15T07:01:25;8.07;;;3.40;;
33830;SDS011;20137;48.834;8.732;2022-11-15T07:03:53;4.85;;;3.33;;
33830;SDS011;20137;48.834;8.732;2022-11-15T07:06:20;5.55;;;3.25;;
33830;SDS011;20137;48.834;8.732;2022-11-15T07:08:46;5.35;;;2.88;;
33830;SDS011;20137;48.834;8.732;2022-11-15T07:11:12;4.20;;;2.65;;
33830;SDS011;20137;48.834;8.732;2022-11-15T07:13:38;7.53;;;2.88;;
33830;SDS011;20137;48.834;8.732;2022-11-15T07:16:04;6.70;;;2.67;;
33830;SDS011;20137;48.834;8.732;2022-11-15T07:18:30;4.05;;;2.60;;
33830;SDS011;20137;48.834;8.732;2022-11-15T07:21:00;3.30;;;2.83;;
33830;SDS011;20137;48.834;8.732;2022-11-15T07:23:26;8.23;;;2.90;;
33830;SDS011;20137;48.834;8.732;2022-11-15T07:25:52;7.07;;;2.60;;
33830;SDS011;20137;48.834;8.732;2022-11-15T07:28:18;4.55;;;2.60;;
33830;SDS011;20137;48.834;8.732;2022-11-15T07:30:44;5.03;;;2.75;;
33830;SDS011;20137;48.834;8.732;2022-11-15T07:33:10;5.75;;;2.55;;
33830;SDS011;20137;48.834;8.732;2022-11-15T07:35:36;5.55;;;2.88;;
33830;SDS011;20137;48.834;8.732;2022-11-15T07:38:02;3.35;;;2.33;;
33830;SDS011;20137;48.834;8.732;2022-11-15T07:40:29;4.50;;;2.83;;
33830;SDS011;20137;48.834;8.732;2022-11-15T07:42:59;4.40;;;2.90;;
33830;SDS011;20137;48.834;8.732;2022-11-15T07:45:25;3.58;;;2.75;;
33830;SDS011;20137;48.834;8.732;2022-11-15T07:47:51;4.85;;;3.15;;
33830;SDS011;20137;48.834;8.732;2022-11-15T07:50:17;6.07;;;3.15;;
33830;SDS011;20137;48.834;8.732;2022-11-15T07:52:44;4.53;;;2.88;;
33830;SDS011;20137;48.834;8.732;2022-11-15T07:55:10;5.65;;;2.80;;
33830;SDS011;20137;48.834;8.732;2022-11-15T07:57:36;4.93;;;3.03;;
33830;SDS011;20137;48.834;8.732;2022-11-15T08:00:04;7.38;;;2.83;;
33830;SDS011;20137;48.834;8.732;2022-11-15T08:02:31;3.65;;;2.28;;
33830;SDS011;20137;48.834;8.732;2022-11-15T08:04:57;4.93;;;2.38;;
33830;SDS011;20137;48.834;8.732;2022-11-15T08:07:24;7.00;;;2.47;;
33830;SDS011;20137;48.834;8.732;2022-11-15T08:09:50;3.60;;;2.45;;
33830;SDS011;20137;48.834;8.732;2022-11-15T08:12:16;5.57;;;3.83;;
33830;SDS011;20137;48.834;8.732;2022-11-15T08:14:42;3.95;;;3.08;;
33830;SDS011;20137;48.834;8.732;2022-11-15T08:17:08;4.95;;;2.58;;
33830;SDS011;20137;48.834;8.732;2022-11-15T08:19:34;3.97;;;2.70;;
33830;SDS011;20137;48.834;8.732;2022-11-15T08:22:00;4.80;;;2.30;;
33830;SDS011;20137;48.834;8.732;2022-11-15T08:24:26;4.40;;;2.00;;
33830;SDS011;20137;48.834;8.732;2022-11-15T08:26:52;3.47;;;2.15;;
33830;SDS011;20137;48.834;8.732;2022-11-15T08:29:18;7.90;;;2.33;;
33830;SDS011;20137;48.834;8.732;2022-11-15T08:31:44;4.03;;;1.77;;
33830;SDS011;20137;48.834;8.732;2022-11-15T08:34:10;8.25;;;2.45;;
33830;SDS011;20137;48.834;8.732;2022-11-15T08:36:36;3.95;;;1.95;;
33830;SDS011;20137;48.834;8.732;2022-11-15T08:39:02;4.80;;;2.28;;
33830;SDS011;20137;48.834;8.732;2022-11-15T08:41:32;6.32;;;1.95;;
33830;SDS011;20137;48.834;8.732;2022-11-15T08:43:59;2.53;;;2.00;;
33830;SDS011;20137;48.834;8.732;2022-11-15T08:46:25;5.80;;;2.13;;
33830;SDS011;20137;48.834;8.732;2022-11-15T08:48:51;2.22;;;1.60;;
33830;SDS011;20137;48.834;8.732;2022-11-15T08:51:17;3.47;;;2.17;;
33830;SDS011;20137;48.834;8.732;2022-11-15T08:53:43;3.83;;;2.28;;
33830;SDS011;20137;48.834;8.732;2022-11-15T08:56:10;5.18;;;2.08;;
33830;SDS011;20137;48.834;8.732;2022-11-15T08:58:36;3.17;;;2.05;;
33830;SDS011;20137;48.834;8.732;2022-11-15T09:01:02;7.63;;;2.25;;
33830;SDS011;20137;48.834;8.732;2022-11-15T09:03:29;3.28;;;1.63;;
33830;SDS011;20137;48.834;8.732;2022-11-15T09:05:56;5.78;;;2.05;;
33830;SDS011;20137;48.834;8.732;2022-11-15T09:08:22;3.92;;;1.90;;
33830;SDS011;20137;48.834;8.732;2022-11-15T09:10:48;3.88;;;2.33;;
33830;SDS011;20137;48.834;8.732;2022-11-15T09:13:14;3.92;;;1.60;;
33830;SDS011;20137;48.834;8.732;2022-11-15T09:15:40;5.05;;;2.20;;
33830;SDS011;20137;48.834;8.732;2022-11-15T09:18:06;3.63;;;1.58;;
33830;SDS011;20137;48.834;8.732;2022-11-15T09:20:32;4.20;;;1.50;;
33830;SDS011;20137;48.834;8.732;2022-11-15T09:22:59;4.50;;;2.28;;
33830;SDS011;20137;48.834;8.732;2022-11-15T09:25:26;2.97;;;1.73;;
33830;SDS011;20137;48.834;8.732;2022-11-15T09:27:52;3.00;;;1.67;;
33830;SDS011;20137;48.834;8.732;2022-11-15T09:30:18;4.53;;;1.80;;
33830;SDS011;20137;48.834;8.732;2022-11-15T09:32:44;4.13;;;1.60;;
33830;SDS011;20137;48.834;8.732;2022-11-15T09:35:10;4.47;;;1.50;;
33830;SDS011;20137;48.834;8.732;2022-11-15T09:37:36;2.15;;;1.63;;
33830;SDS011;20137;48.834;8.732;2022-11-15T09:40:02;4.78;;;1.88;;
33830;SDS011;20137;48.834;8.732;2022-11-15T09:45:05;4.90;;;1.55;;
33830;SDS011;20137;48.834;8.732;2022-11-15T09:50:27;3.57;;;1.70;;
33830;SDS011;20137;48.834;8.732;2022-11-15T09:55:20;2.88;;;1.60;;
33830;SDS011;20137;48.834;8.732;2022-11-15T09:57:55;4.47;;;1.50;;
33830;SDS011;20137;48.834;8.732;2022-11-15T10:00:33;3.28;;;1.88;;
33830;SDS011;20137;48.834;8.732;2022-11-15T10:05:26;2.35;;;1.42;;
33830;SDS011;20137;48.834;8.732;2022-11-15T10:12:47;3.33;;;1.55;;
33830;SDS011;20137;48.834;8.732;2022-11-15T10:15:14;2.67;;;1.48;;
33830;SDS011;20137;48.834;8.732;2022-11-15T10:20:12;3.78;;;1.95;;
33830;SDS011;20137;48.834;8.732;2022-11-15T10:22:46;4.85;;;2.35;;
33830;SDS011;20137;48.834;8.732;2022-11-15T10:25:16;4.40;;;2.10;;
33830;SDS011;20137;48.834;8.732;2022-11-15T10:27:42;6.60;;;2.08;;
33830;SDS011;20137;48.834;8.732;2022-11-15T10:30:13;4.90;;;2.40;;
33830;SDS011;20137;48.834;8.732;2022-11-15T10:32:39;5.88;;;2.15;;
33830;SDS011;20137;48.834;8.732;2022-11-15T10:35:27;7.03;;;2.22;;
33830;SDS011;20137;48.834;8.732;2022-11-15T10:37:52;3.78;;;2.00;;
33830;SDS011;20137;48.834;8.732;2022-11-15T10:40:29;5.75;;;2.95;;
33830;SDS011;20137;48.834;8.732;2022-11-15T10:45:40;4.75;;;2.90;;
33830;SDS011;20137;48.834;8.732;2022-11-15T10:50:45;5.75;;;2.70;;
33830;SDS011;20137;48.834;8.732;2022-11-15T10:55:38;5.53;;;2.58;;
33830;SDS011;20137;48.834;8.732;2022-11-15T10:59:07;7.22;;;3.78;;
33830;SDS011;20137;48.834;8.732;2022-11-15T11:01:08;4.20;;;2.78;;
33830;SDS011;20137;48.834;8.732;2022-11-15T11:03:35;4.68;;;1.90;;
33830;SDS011;20137;48.834;8.732;2022-11-15T11:06:09;3.92;;;2.25;;
33830;SDS011;20137;48.834;8.732;2022-11-15T11:08:36;3.83;;;2.25;;
33830;SDS011;20137;48.834;8.732;2022-11-15T11:11:02;4.85;;;2.08;;
33830;SDS011;20137;48.834;8.732;2022-11-15T11:13:30;3.33;;;2.25;;
33830;SDS011;20137;48.834;8.732;2022-11-15T11:16:06;6.65;;;2.92;;
33830;SDS011;20137;48.834;8.732;2022-11-15T11:18:39;6.50;;;3.85;;
33830;SDS011;20137;48.834;8.732;2022-11-15T11:21:11;6.70;;;3.60;;
33830;SDS011;20137;48.834;8.732;2022-11-15T11:23:48;4.72;;;2.55;;
33830;SDS011;20137;48.834;8.732;2022-11-15T11:26:38;4.95;;;2.42;;
33830;SDS011;20137;48.834;8.732;2022-11-15T11:32:14;2.95;;;1.73;;
33830;SDS011;20137;48.834;8.732;2022-11-15T11:37:17;3.72;;;1.70;;
33830;SDS011;20137;48.834;8.732;2022-11-15T11:40:00;2.80;;;1.75;;
33830;SDS011;20137;48.834;8.732;2022-11-15T11:45:24;3.13;;;1.58;;
33830;SDS011;20137;48.834;8.732;2022-11-15T11:50:26;6.75;;;2.30;;
33830;SDS011;20137;48.834;8.732;2022-11-15T11:53:12;4.95;;;2.20;;
33830;SDS011;20137;48.834;8.732;2022-11-15T11:55:41;3.55;;;2.00;;
33830;SDS011;20137;48.834;8.732;2022-11-15T12:01:08;2.88;;;2.03;;
33830;SDS011;20137;48.834;8.732;2022-11-15T12:03:51;10.90;;;7.28;;
33830;SDS011;20137;48.834;8.732;2022-11-15T12:06:35;13.15;;;8.10;;
33830;SDS011;20137;48.834;8.732;2022-11-15T12:11:50;12.38;;;6.88;;
33830;SDS011;20137;48.834;8.732;2022-11-15T12:16:55;7.57;;;3.05;;
33830;SDS011;20137;48.834;8.732;2022-11-15T12:19:21;5.47;;;2.60;;
33830;SDS011;20137;48.834;8.732;2022-11-15T12:22:00;2.80;;;1.85;;
33830;SDS011;20137;48.834;8.732;2022-11-15T12:24:34;3.97;;;2.20;;
33830;SDS011;20137;48.834;8.732;2022-11-15T12:27:11;3.15;;;1.92;;
33830;SDS011;20137;48.834;8.732;2022-11-15T12:29:39;4.93;;;2.20;;
33830;SDS011;20137;48.834;8.732;2022-11-15T12:32:48;4.05;;;2.35;;
33830;SDS011;20137;48.834;8.732;2022-11-15T12:35:00;5.43;;;2.00;;
33830;SDS011;20137;48.834;8.732;2022-11-15T12:44:57;4.68;;;2.42;;
33830;SDS011;20137;48.834;8.732;2022-11-15T12:47:25;5.60;;;2.60;;
33830;SDS011;20137;48.834;8.732;2022-11-15T12:49:51;6.15;;;2.72;;
33830;SDS011;20137;48.834;8.732;2022-11-15T12:52:17;7.78;;;3.97;;
33830;SDS011;20137;48.834;8.732;2022-11-15T12:54:51;6.22;;;3.35;;
33830;SDS011;20137;48.834;8.732;2022-11-15T12:57:27;6.90;;;3.17;;
33830;SDS011;20137;48.834;8.732;2022-11-15T13:00:00;6.88;;;3.50;;
33830;SDS011;20137;48.834;8.732;2022-11-15T13:02:32;5.93;;;3.30;;
33830;SDS011;20137;48.834;8.732;2022-11-15T13:07:57;6.70;;;2.50;;
33830;SDS011;20137;48.834;8.732;2022-11-15T13:13:02;4.75;;;2.17;;
33830;SDS011;20137;48.834;8.732;2022-11-15T13:18:35;2.60;;;2.20;;
33830;SDS011;20137;48.834;8.732;2022-11-15T13:21:00;4.38;;;2.30;;
33830;SDS011;20137;48.834;8.732;2022-11-15T13:23:26;4.18;;;2.45;;
33830;SDS011;20137;48.834;8.732;2022-11-15T13:25:57;2.95;;;2.28;;
33830;SDS011;20137;48.834;8.732;2022-11-15T13:28:33;3.58;;;2.42;;
33830;SDS011;20137;48.834;8.732;2022-11-15T13:31:03;3.28;;;;;
33830;SDS011;20137;48.834;8.732;2022-11-15T13:33:39;3.47;;;2.00;;
33830;SDS011;20137;48.834;8.732;2022-11-15T13:36:06;3.47;;;2.35;;
33830;SDS011;20137;48.834;8.732;2022-11-15T13:38:34;3.95;;;2.25;;
33830;SDS011;20137;48.834;8.732;2022-11-15T13:41:10;2.92;;;2.10;;
33830;SDS011;20137;48.834;8.732;2022-11-15T13:43:37;3.65;;;2.08;;
33830;SDS011;20137;48.834;8.732;2022-11-15T13:48:32;4.75;;;2.10;;
33830;SDS011;20137;48.834;8.732;2022-11-15T13:50:59;3.53;;;2.08;;
33830;SDS011;20137;48.834;8.732;2022-11-15T13:53:25;4.38;;;2.28;;
33830;SDS011;20137;48.834;8.732;2022-11-15T13:55:51;6.85;;;2.50;;
33830;SDS011;20137;48.834;8.732;2022-11-15T13:58:19;4.25;;;2.25;;
33830;SDS011;20137;48.834;8.732;2022-11-15T14:00:45;3.83;;;2.50;;
33830;SDS011;20137;48.834;8.732;2022-11-15T14:03:15;4.60;;;2.42;;
33830;SDS011;20137;48.834;8.732;2022-11-15T14:05:43;3.50;;;2.17;;
33830;SDS011;20137;48.834;8.732;2022-11-15T14:10:41;3.72;;;2.10;;
33830;SDS011;20137;48.834;8.732;2022-11-15T14:13:11;4.95;;;2.70;;
33830;SDS011;20137;48.834;8.732;2022-11-15T14:15:52;4.50;;;2.15;;
33830;SDS011;20137;48.834;8.732;2022-11-15T14:21:06;8.98;;;4.38;;
33830;SDS011;20137;48.834;8.732;2022-11-15T14:23:33;10.20;;;3.55;;
33830;SDS011;20137;48.834;8.732;2022-11-15T14:25:59;13.77;;;3.67;;
33830;SDS011;20137;48.834;8.732;2022-11-15T14:30:52;6.63;;;2.95;;
33830;SDS011;20137;48.834;8.732;2022-11-15T14:33:20;13.25;;;4.85;;
33830;SDS011;20137;48.834;8.732;2022-11-15T14:35:46;8.52;;;3.15;;
33830;SDS011;20137;48.834;8.732;2022-11-15T14:38:13;8.85;;;3.65;;
33830;SDS011;20137;48.834;8.732;2022-11-15T14:40:41;14.82;;;4.68;;
33830;SDS011;20137;48.834;8.732;2022-11-15T14:43:09;9.15;;;3.70;;
33830;SDS011;20137;48.834;8.732;2022-11-15T14:45:36;12.02;;;3.60;;
33830;SDS011;20137;48.834;8.732;2022-11-15T14:48:02;10.68;;;3.47;;
33830;SDS011;20137;48.834;8.732;2022-11-15T14:50:28;5.65;;;2.80;;
33830;SDS011;20137;48.834;8.732;2022-11-15T14:52:54;5.85;;;2.55;;
33830;SDS011;20137;48.834;8.732;2022-11-15T14:55:21;5.65;;;2.70;;
33830;SDS011;20137;48.834;8.732;2022-11-15T14:57:48;6.13;;;3.58;;
33830;SDS011;20137;48.834;8.732;2022-11-15T15:00:14;10.32;;;3.83;;
33830;SDS011;20137;48.834;8.732;2022-11-15T15:02:41;12.38;;;5.35;;
33830;SDS011;20137;48.834;8.732;2022-11-15T15:05:21;8.30;;;4.32;;
33830;SDS011;20137;48.834;8.732;2022-11-15T15:07:48;14.20;;;5.88;;
33830;SDS011;20137;48.834;8.732;2022-11-15T15:10:15;26.75;;;13.38;;
33830;SDS011;20137;48.834;8.732;2022-11-15T15:12:41;25.52;;;12.02;;
33830;SDS011;20137;48.834;8.732;2022-11-15T15:15:21;14.93;;;6.28;;
33830;SDS011;20137;48.834;8.732;2022-11-15T15:17:48;16.08;;;6.03;;
33830;SDS011;20137;48.834;8.732;2022-11-15T15:20:14;15.98;;;7.45;;
33830;SDS011;20137;48.834;8.732;2022-11-15T15:22:40;14.98;;;5.97;;
33830;SDS011;20137;48.834;8.732;2022-11-15T15:27:44;20.52;;;10.35;;
33830;SDS011;20137;48.834;8.732;2022-11-15T15:30:10;12.02;;;5.60;;
33830;SDS011;20137;48.834;8.732;2022-11-15T15:32:36;12.20;;;6.40;;
33830;SDS011;20137;48.834;8.732;2022-11-15T15:35:02;12.60;;;5.55;;
33830;SDS011;20137;48.834;8.732;2022-11-15T15:37:28;12.45;;;4.97;;
33830;SDS011;20137;48.834;8.732;2022-11-15T15:39:55;7.75;;;4.55;;
33830;SDS011;20137;48.834;8.732;2022-11-15T15:42:22;10.98;;;5.43;;
33830;SDS011;20137;48.834;8.732;2022-11-15T15:44:48;12.02;;;5.38;;
33830;SDS011;20137;48.834;8.732;2022-11-15T15:47:16;13.65;;;6.38;;
33830;SDS011;20137;48.834;8.732;2022-11-15T15:49:42;7.82;;;4.13;;
33830;SDS011;20137;48.834;8.732;2022-11-15T15:52:08;5.47;;;3.75;;
33830;SDS011;20137;48.834;8.732;2022-11-15T15:54:34;10.02;;;4.82;;
33830;SDS011;20137;48.834;8.732;2022-11-15T15:57:00;6.00;;;4.35;;
33830;SDS011;20137;48.834;8.732;2022-11-15T15:59:26;9.57;;;4.65;;
33830;SDS011;20137;48.834;8.732;2022-11-15T16:01:53;9.68;;;4.72;;
33830;SDS011;20137;48.834;8.732;2022-11-15T16:04:19;8.65;;;3.35;;
33830;SDS011;20137;48.834;8.732;2022-11-15T16:06:45;4.70;;;3.53;;
33830;SDS011;20137;48.834;8.732;2022-11-15T16:09:14;5.47;;;3.33;;
33830;SDS011;20137;48.834;8.732;2022-11-15T16:11:41;8.75;;;3.67;;
33830;SDS011;20137;48.834;8.732;2022-11-15T16:14:07;4.50;;;3.17;;
33830;SDS011;20137;48.834;8.732;2022-11-15T16:16:34;9.60;;;4.72;;
33830;SDS011;20137;48.834;8.732;2022-11-15T16:19:00;13.07;;;4.93;;
33830;SDS011;20137;48.834;8.732;2022-11-15T16:21:27;7.45;;;3.40;;
33830;SDS011;20137;48.834;8.732;2022-11-15T16:23:53;6.88;;;3.58;;
33830;SDS011;20137;48.834;8.732;2022-11-15T16:26:20;8.18;;;3.92;;
33830;SDS011;20137;48.834;8.732;2022-11-15T16:28:46;6.53;;;3.45;;
33830;SDS011;20137;48.834;8.732;2022-11-15T16:31:12;6.70;;;3.65;;
33830;SDS011;20137;48.834;8.732;2022-11-15T16:33:39;7.15;;;3.88;;
33830;SDS011;20137;48.834;8.732;2022-11-15T16:36:10;10.20;;;3.55;;